sensor_id;sensor_type;location;lat;lon;timestamp;P1;durP1;ratioP1;P2;durP2;ratioP2
36551;SDS011;22559;54.176;12.102;2024-01-30T00:02:21;7.03;;;5.30;;
36551;SDS011;22559;54.176;12.102;2024-01-30T00:04:46;5.80;;;5.23;;
36551;SDS011;22559;54.176;12.102;2024-01-30T00:07:12;6.07;;;5.27;;
36551;SDS011;22559;54.176;12.102;2024-01-30T00:09:38;5.20;;;4.70;;
36551;SDS011;22559;54.176;12.102;2024-01-30T00:12:05;5.40;;;4.90;;
36551;SDS011;22559;54.176;12.102;2024-01-30T00:14:31;6.87;;;5.13;;
36551;SDS011;22559;54.176;12.102;2024-01-30T00:16:57;7.07;;;5.43;;
36551;SDS011;22559;54.176;12.102;2024-01-30T00:19:22;10.60;;;5.20;;
36551;SDS011;22559;54.176;12.102;2024-01-30T00:21:48;9.60;;;5.60;;
36551;SDS011;22559;54.176;12.102;2024-01-30T00:24:13;5.97;;;4.77;;
36551;SDS011;22559;54.176;12.102;2024-01-30T00:26:39;7.63;;;4.73;;
36551;SDS011;22559;54.176;12.102;2024-01-30T00:29:05;7.77;;;5.17;;
36551;SDS011;22559;54.176;12.102;2024-01-30T00:31:31;7.20;;;5.67;;
36551;SDS011;22559;54.176;12.102;2024-01-30T00:33:56;7.53;;;5.47;;
36551;SDS011;22559;54.176;12.102;2024-01-30T00:36:22;6.23;;;4.87;;
36551;SDS011;22559;54.176;12.102;2024-01-30T00:38:47;6.77;;;5.13;;
36551;SDS011;22559;54.176;12.102;2024-01-30T00:41:13;5.50;;;5.00;;
36551;SDS011;22559;54.176;12.102;2024-01-30T00:43:39;6.33;;;4.57;;
36551;SDS011;22559;54.176;12.102;2024-01-30T00:46:05;5.67;;;4.70;;
36551;SDS011;22559;54.176;12.102;2024-01-30T00:48:31;6.23;;;4.50;;
36551;SDS011;22559;54.176;12.102;2024-01-30T00:50:56;5.80;;;5.20;;
36551;SDS011;22559;54.176;12.102;2024-01-30T00:53:22;9.10;;;5.37;;
36551;SDS011;22559;54.176;12.102;2024-01-30T00:55:47;5.33;;;4.40;;
36551;SDS011;22559;54.176;12.102;2024-01-30T00:58:13;5.60;;;5.00;;
36551;SDS011;22559;54.176;12.102;2024-01-30T01:00:39;5.63;;;5.00;;
36551;SDS011;22559;54.176;12.102;2024-01-30T01:03:04;5.37;;;4.63;;
36551;SDS011;22559;54.176;12.102;2024-01-30T01:05:30;6.77;;;5.17;;
36551;SDS011;22559;54.176;12.102;2024-01-30T01:07:56;5.70;;;5.07;;
36551;SDS011;22559;54.176;12.102;2024-01-30T01:10:21;6.30;;;5.53;;
36551;SDS011;22559;54.176;12.102;2024-01-30T01:12:47;7.97;;;5.77;;
36551;SDS011;22559;54.176;12.102;2024-01-30T01:15:13;7.13;;;5.70;;
36551;SDS011;22559;54.176;12.102;2024-01-30T01:17:39;6.57;;;5.60;;
36551;SDS011;22559;54.176;12.102;2024-01-30T01:20:05;10.13;;;6.10;;
36551;SDS011;22559;54.176;12.102;2024-01-30T01:22:32;6.77;;;4.93;;
36551;SDS011;22559;54.176;12.102;2024-01-30T01:24:59;9.13;;;5.10;;
36551;SDS011;22559;54.176;12.102;2024-01-30T01:27:25;6.23;;;5.30;;
36551;SDS011;22559;54.176;12.102;2024-01-30T01:29:51;6.37;;;4.57;;
36551;SDS011;22559;54.176;12.102;2024-01-30T01:32:17;5.80;;;4.77;;
36551;SDS011;22559;54.176;12.102;2024-01-30T01:34:43;5.30;;;4.80;;
36551;SDS011;22559;54.176;12.102;2024-01-30T01:37:08;6.83;;;5.60;;
36551;SDS011;22559;54.176;12.102;2024-01-30T01:39:34;6.00;;;4.67;;
36551;SDS011;22559;54.176;12.102;2024-01-30T01:42:00;5.70;;;4.67;;
36551;SDS011;22559;54.176;12.102;2024-01-30T01:44:26;6.57;;;5.20;;
36551;SDS011;22559;54.176;12.102;2024-01-30T01:46:52;8.87;;;4.83;;
36551;SDS011;22559;54.176;12.102;2024-01-30T01:49:18;6.37;;;5.03;;
36551;SDS011;22559;54.176;12.102;2024-01-30T01:51:45;6.80;;;5.60;;
36551;SDS011;22559;54.176;12.102;2024-01-30T01:54:13;5.87;;;4.97;;
36551;SDS011;22559;54.176;12.102;2024-01-30T01:56:40;5.60;;;5.03;;
36551;SDS011;22559;54.176;12.102;2024-01-30T01:59:07;8.70;;;5.43;;
36551;SDS011;22559;54.176;12.102;2024-01-30T02:01:34;5.13;;;4.47;;
36551;SDS011;22559;54.176;12.102;2024-01-30T02:04:01;7.30;;;4.77;;
36551;SDS011;22559;54.176;12.102;2024-01-30T02:06:27;7.13;;;5.73;;
36551;SDS011;22559;54.176;12.102;2024-01-30T02:08:53;5.67;;;4.60;;
36551;SDS011;22559;54.176;12.102;2024-01-30T02:11:20;8.43;;;5.20;;
36551;SDS011;22559;54.176;12.102;2024-01-30T02:13:47;5.40;;;4.83;;
36551;SDS011;22559;54.176;12.102;2024-01-30T02:16:12;5.97;;;5.10;;
36551;SDS011;22559;54.176;12.102;2024-01-30T02:18:38;5.77;;;5.07;;
36551;SDS011;22559;54.176;12.102;2024-01-30T02:21:08;6.57;;;5.37;;
36551;SDS011;22559;54.176;12.102;2024-01-30T02:23:34;6.70;;;5.00;;
36551;SDS011;22559;54.176;12.102;2024-01-30T02:26:00;7.30;;;5.50;;
36551;SDS011;22559;54.176;12.102;2024-01-30T02:28:26;9.77;;;5.33;;
36551;SDS011;22559;54.176;12.102;2024-01-30T02:30:52;8.33;;;5.27;;
36551;SDS011;22559;54.176;12.102;2024-01-30T02:33:18;6.83;;;5.37;;
36551;SDS011;22559;54.176;12.102;2024-01-30T02:35:43;5.77;;;5.20;;
36551;SDS011;22559;54.176;12.102;2024-01-30T02:38:09;5.53;;;4.93;;
36551;SDS011;22559;54.176;12.102;2024-01-30T02:40:35;6.07;;;5.10;;
36551;SDS011;22559;54.176;12.102;2024-01-30T02:43:01;8.57;;;5.80;;
36551;SDS011;22559;54.176;12.102;2024-01-30T02:45:27;7.43;;;5.57;;
36551;SDS011;22559;54.176;12.102;2024-01-30T02:47:53;5.93;;;5.33;;
36551;SDS011;22559;54.176;12.102;2024-01-30T02:50:19;6.40;;;5.50;;
36551;SDS011;22559;54.176;12.102;2024-01-30T02:52:44;7.37;;;6.07;;
36551;SDS011;22559;54.176;12.102;2024-01-30T02:55:10;6.53;;;5.93;;
36551;SDS011;22559;54.176;12.102;2024-01-30T02:57:36;9.57;;;5.90;;
36551;SDS011;22559;54.176;12.102;2024-01-30T03:00:03;6.83;;;5.73;;
36551;SDS011;22559;54.176;12.102;2024-01-30T03:02:31;9.90;;;5.90;;
36551;SDS011;22559;54.176;12.102;2024-01-30T03:04:57;7.40;;;6.00;;
36551;SDS011;22559;54.176;12.102;2024-01-30T03:07:22;5.90;;;5.30;;
36551;SDS011;22559;54.176;12.102;2024-01-30T03:09:48;7.33;;;5.43;;
36551;SDS011;22559;54.176;12.102;2024-01-30T03:12:14;11.40;;;6.17;;
36551;SDS011;22559;54.176;12.102;2024-01-30T03:14:39;10.50;;;5.97;;
36551;SDS011;22559;54.176;12.102;2024-01-30T03:17:05;7.50;;;6.30;;
36551;SDS011;22559;54.176;12.102;2024-01-30T03:19:30;10.40;;;5.70;;
36551;SDS011;22559;54.176;12.102;2024-01-30T03:21:56;7.90;;;6.00;;
36551;SDS011;22559;54.176;12.102;2024-01-30T03:24:21;9.10;;;6.70;;
36551;SDS011;22559;54.176;12.102;2024-01-30T03:26:47;8.90;;;6.73;;
36551;SDS011;22559;54.176;12.102;2024-01-30T03:29:13;7.37;;;5.97;;
36551;SDS011;22559;54.176;12.102;2024-01-30T03:31:38;9.03;;;6.67;;
36551;SDS011;22559;54.176;12.102;2024-01-30T03:34:04;5.77;;;5.17;;
36551;SDS011;22559;54.176;12.102;2024-01-30T03:36:30;6.93;;;5.50;;
36551;SDS011;22559;54.176;12.102;2024-01-30T03:38:58;7.17;;;5.80;;
36551;SDS011;22559;54.176;12.102;2024-01-30T03:41:23;6.60;;;5.97;;
36551;SDS011;22559;54.176;12.102;2024-01-30T03:43:49;7.73;;;5.70;;
36551;SDS011;22559;54.176;12.102;2024-01-30T03:46:15;6.87;;;6.13;;
36551;SDS011;22559;54.176;12.102;2024-01-30T03:48:41;7.87;;;5.57;;
36551;SDS011;22559;54.176;12.102;2024-01-30T03:51:07;7.10;;;5.33;;
36551;SDS011;22559;54.176;12.102;2024-01-30T03:53:33;6.37;;;5.30;;
36551;SDS011;22559;54.176;12.102;2024-01-30T03:55:59;6.60;;;5.10;;
36551;SDS011;22559;54.176;12.102;2024-01-30T03:58:24;5.57;;;5.03;;
36551;SDS011;22559;54.176;12.102;2024-01-30T04:00:50;11.20;;;5.70;;
36551;SDS011;22559;54.176;12.102;2024-01-30T04:03:16;7.40;;;5.83;;
36551;SDS011;22559;54.176;12.102;2024-01-30T04:05:42;7.30;;;6.00;;
36551;SDS011;22559;54.176;12.102;2024-01-30T04:08:09;7.90;;;5.83;;
36551;SDS011;22559;54.176;12.102;2024-01-30T04:10:35;8.80;;;5.00;;
36551;SDS011;22559;54.176;12.102;2024-01-30T04:13:00;6.70;;;5.67;;
36551;SDS011;22559;54.176;12.102;2024-01-30T04:15:26;7.53;;;5.30;;
36551;SDS011;22559;54.176;12.102;2024-01-30T04:17:53;7.17;;;5.57;;
36551;SDS011;22559;54.176;12.102;2024-01-30T04:20:18;7.00;;;4.97;;
36551;SDS011;22559;54.176;12.102;2024-01-30T04:22:44;7.43;;;5.33;;
36551;SDS011;22559;54.176;12.102;2024-01-30T04:25:11;5.80;;;5.20;;
36551;SDS011;22559;54.176;12.102;2024-01-30T04:27:37;7.60;;;6.17;;
36551;SDS011;22559;54.176;12.102;2024-01-30T04:30:03;8.13;;;5.87;;
36551;SDS011;22559;54.176;12.102;2024-01-30T04:32:30;8.93;;;5.60;;
36551;SDS011;22559;54.176;12.102;2024-01-30T04:34:55;7.17;;;5.60;;
36551;SDS011;22559;54.176;12.102;2024-01-30T04:37:21;9.10;;;5.93;;
36551;SDS011;22559;54.176;12.102;2024-01-30T04:39:46;9.90;;;6.67;;
36551;SDS011;22559;54.176;12.102;2024-01-30T04:42:12;9.13;;;6.20;;
36551;SDS011;22559;54.176;12.102;2024-01-30T04:44:38;8.07;;;5.90;;
36551;SDS011;22559;54.176;12.102;2024-01-30T04:47:03;8.97;;;5.90;;
36551;SDS011;22559;54.176;12.102;2024-01-30T04:49:31;10.03;;;5.97;;
36551;SDS011;22559;54.176;12.102;2024-01-30T04:51:57;10.50;;;6.70;;
36551;SDS011;22559;54.176;12.102;2024-01-30T04:54:22;8.40;;;6.40;;
36551;SDS011;22559;54.176;12.102;2024-01-30T04:56:48;11.27;;;7.07;;
36551;SDS011;22559;54.176;12.102;2024-01-30T04:59:14;9.53;;;6.93;;
36551;SDS011;22559;54.176;12.102;2024-01-30T05:01:39;8.03;;;6.03;;
36551;SDS011;22559;54.176;12.102;2024-01-30T05:04:08;7.30;;;5.97;;
36551;SDS011;22559;54.176;12.102;2024-01-30T05:06:34;8.17;;;6.07;;
36551;SDS011;22559;54.176;12.102;2024-01-30T05:09:00;8.07;;;6.10;;
36551;SDS011;22559;54.176;12.102;2024-01-30T05:11:26;8.00;;;6.27;;
36551;SDS011;22559;54.176;12.102;2024-01-30T05:13:51;7.43;;;6.30;;
36551;SDS011;22559;54.176;12.102;2024-01-30T05:16:17;7.23;;;6.23;;
36551;SDS011;22559;54.176;12.102;2024-01-30T05:18:43;7.77;;;6.13;;
36551;SDS011;22559;54.176;12.102;2024-01-30T05:21:09;7.13;;;6.43;;
36551;SDS011;22559;54.176;12.102;2024-01-30T05:23:35;8.37;;;6.90;;
36551;SDS011;22559;54.176;12.102;2024-01-30T05:26:01;7.63;;;6.83;;
36551;SDS011;22559;54.176;12.102;2024-01-30T05:28:28;9.03;;;6.53;;
36551;SDS011;22559;54.176;12.102;2024-01-30T05:30:55;7.40;;;6.33;;
36551;SDS011;22559;54.176;12.102;2024-01-30T05:33:21;7.67;;;6.10;;
36551;SDS011;22559;54.176;12.102;2024-01-30T05:35:47;9.63;;;6.03;;
36551;SDS011;22559;54.176;12.102;2024-01-30T05:38:13;9.27;;;6.37;;
36551;SDS011;22559;54.176;12.102;2024-01-30T05:40:40;9.17;;;5.93;;
36551;SDS011;22559;54.176;12.102;2024-01-30T05:43:06;8.30;;;6.50;;
36551;SDS011;22559;54.176;12.102;2024-01-30T05:45:32;8.20;;;6.20;;
36551;SDS011;22559;54.176;12.102;2024-01-30T05:48:00;9.57;;;6.87;;
36551;SDS011;22559;54.176;12.102;2024-01-30T05:50:25;11.83;;;7.07;;
36551;SDS011;22559;54.176;12.102;2024-01-30T05:52:52;8.53;;;6.27;;
36551;SDS011;22559;54.176;12.102;2024-01-30T05:55:17;11.70;;;6.73;;
36551;SDS011;22559;54.176;12.102;2024-01-30T05:57:43;8.50;;;6.10;;
36551;SDS011;22559;54.176;12.102;2024-01-30T06:00:09;8.83;;;5.47;;
36551;SDS011;22559;54.176;12.102;2024-01-30T06:02:35;6.97;;;6.00;;
36551;SDS011;22559;54.176;12.102;2024-01-30T06:05:01;9.07;;;6.10;;
36551;SDS011;22559;54.176;12.102;2024-01-30T06:07:26;6.70;;;5.63;;
36551;SDS011;22559;54.176;12.102;2024-01-30T06:09:52;7.90;;;6.20;;
36551;SDS011;22559;54.176;12.102;2024-01-30T06:12:17;8.20;;;6.20;;
36551;SDS011;22559;54.176;12.102;2024-01-30T06:14:43;9.30;;;6.80;;
36551;SDS011;22559;54.176;12.102;2024-01-30T06:17:09;13.57;;;7.03;;
36551;SDS011;22559;54.176;12.102;2024-01-30T06:19:36;8.63;;;6.47;;
36551;SDS011;22559;54.176;12.102;2024-01-30T06:22:03;7.57;;;6.53;;
36551;SDS011;22559;54.176;12.102;2024-01-30T06:24:29;10.83;;;7.03;;
36551;SDS011;22559;54.176;12.102;2024-01-30T06:26:55;9.40;;;7.23;;
36551;SDS011;22559;54.176;12.102;2024-01-30T06:29:21;9.57;;;6.83;;
36551;SDS011;22559;54.176;12.102;2024-01-30T06:31:46;10.13;;;7.20;;
36551;SDS011;22559;54.176;12.102;2024-01-30T06:34:12;10.37;;;7.30;;
36551;SDS011;22559;54.176;12.102;2024-01-30T06:36:38;9.10;;;6.97;;
36551;SDS011;22559;54.176;12.102;2024-01-30T06:39:03;9.37;;;6.83;;
36551;SDS011;22559;54.176;12.102;2024-01-30T06:41:29;10.33;;;7.00;;
36551;SDS011;22559;54.176;12.102;2024-01-30T06:43:55;9.53;;;7.07;;
36551;SDS011;22559;54.176;12.102;2024-01-30T06:46:21;8.17;;;6.77;;
36551;SDS011;22559;54.176;12.102;2024-01-30T06:48:47;10.63;;;7.50;;
36551;SDS011;22559;54.176;12.102;2024-01-30T06:51:13;9.30;;;7.13;;
36551;SDS011;22559;54.176;12.102;2024-01-30T06:53:38;10.17;;;7.53;;
36551;SDS011;22559;54.176;12.102;2024-01-30T06:56:04;7.50;;;6.40;;
36551;SDS011;22559;54.176;12.102;2024-01-30T06:58:30;11.10;;;7.37;;
36551;SDS011;22559;54.176;12.102;2024-01-30T07:00:57;10.20;;;7.30;;
36551;SDS011;22559;54.176;12.102;2024-01-30T07:03:23;12.03;;;7.73;;
36551;SDS011;22559;54.176;12.102;2024-01-30T07:05:48;7.40;;;6.60;;
36551;SDS011;22559;54.176;12.102;2024-01-30T07:08:15;10.93;;;7.60;;
36551;SDS011;22559;54.176;12.102;2024-01-30T07:10:42;9.73;;;6.97;;
36551;SDS011;22559;54.176;12.102;2024-01-30T07:13:11;13.20;;;7.73;;
36551;SDS011;22559;54.176;12.102;2024-01-30T07:15:36;11.30;;;7.00;;
36551;SDS011;22559;54.176;12.102;2024-01-30T07:18:02;9.60;;;6.97;;
36551;SDS011;22559;54.176;12.102;2024-01-30T07:20:29;16.73;;;6.97;;
36551;SDS011;22559;54.176;12.102;2024-01-30T07:22:57;13.03;;;7.43;;
36551;SDS011;22559;54.176;12.102;2024-01-30T07:25:23;15.07;;;7.50;;
36551;SDS011;22559;54.176;12.102;2024-01-30T07:27:51;10.20;;;6.93;;
36551;SDS011;22559;54.176;12.102;2024-01-30T07:30:20;12.07;;;8.43;;
36551;SDS011;22559;54.176;12.102;2024-01-30T07:32:46;12.03;;;7.20;;
36551;SDS011;22559;54.176;12.102;2024-01-30T07:35:13;12.23;;;8.30;;
36551;SDS011;22559;54.176;12.102;2024-01-30T07:37:39;16.63;;;10.57;;
36551;SDS011;22559;54.176;12.102;2024-01-30T07:40:05;11.97;;;7.70;;
36551;SDS011;22559;54.176;12.102;2024-01-30T07:42:31;9.67;;;7.50;;
36551;SDS011;22559;54.176;12.102;2024-01-30T07:44:58;13.27;;;8.87;;
36551;SDS011;22559;54.176;12.102;2024-01-30T07:47:23;12.30;;;8.10;;
36551;SDS011;22559;54.176;12.102;2024-01-30T07:49:49;9.13;;;7.80;;
36551;SDS011;22559;54.176;12.102;2024-01-30T07:52:14;9.97;;;7.60;;
36551;SDS011;22559;54.176;12.102;2024-01-30T07:54:41;9.60;;;7.00;;
36551;SDS011;22559;54.176;12.102;2024-01-30T07:57:06;8.50;;;7.07;;
36551;SDS011;22559;54.176;12.102;2024-01-30T07:59:32;11.40;;;8.10;;
36551;SDS011;22559;54.176;12.102;2024-01-30T08:01:57;12.37;;;7.67;;
36551;SDS011;22559;54.176;12.102;2024-01-30T08:04:23;10.27;;;7.73;;
36551;SDS011;22559;54.176;12.102;2024-01-30T08:06:49;10.40;;;7.53;;
36551;SDS011;22559;54.176;12.102;2024-01-30T08:09:14;10.93;;;7.70;;
36551;SDS011;22559;54.176;12.102;2024-01-30T08:11:40;10.47;;;7.67;;
36551;SDS011;22559;54.176;12.102;2024-01-30T08:14:05;11.17;;;7.63;;
36551;SDS011;22559;54.176;12.102;2024-01-30T08:16:31;13.03;;;8.40;;
36551;SDS011;22559;54.176;12.102;2024-01-30T08:18:57;11.53;;;8.20;;
36551;SDS011;22559;54.176;12.102;2024-01-30T08:21:22;11.33;;;8.27;;
36551;SDS011;22559;54.176;12.102;2024-01-30T08:23:48;10.10;;;7.50;;
36551;SDS011;22559;54.176;12.102;2024-01-30T08:26:14;10.73;;;8.33;;
36551;SDS011;22559;54.176;12.102;2024-01-30T08:28:39;12.77;;;8.30;;
36551;SDS011;22559;54.176;12.102;2024-01-30T08:31:05;11.03;;;8.13;;
36551;SDS011;22559;54.176;12.102;2024-01-30T08:33:30;12.80;;;8.13;;
36551;SDS011;22559;54.176;12.102;2024-01-30T08:35:56;12.27;;;7.87;;
36551;SDS011;22559;54.176;12.102;2024-01-30T08:38:22;11.70;;;8.07;;
36551;SDS011;22559;54.176;12.102;2024-01-30T08:40:48;11.57;;;8.30;;
36551;SDS011;22559;54.176;12.102;2024-01-30T08:43:14;10.47;;;8.03;;
36551;SDS011;22559;54.176;12.102;2024-01-30T08:45:40;11.87;;;8.17;;
36551;SDS011;22559;54.176;12.102;2024-01-30T08:48:06;19.13;;;11.83;;
36551;SDS011;22559;54.176;12.102;2024-01-30T08:50:32;10.40;;;8.17;;
36551;SDS011;22559;54.176;12.102;2024-01-30T08:52:58;10.50;;;8.27;;
36551;SDS011;22559;54.176;12.102;2024-01-30T08:55:24;11.83;;;8.07;;
36551;SDS011;22559;54.176;12.102;2024-01-30T08:57:49;11.03;;;8.07;;
36551;SDS011;22559;54.176;12.102;2024-01-30T09:00:17;13.53;;;8.40;;
36551;SDS011;22559;54.176;12.102;2024-01-30T09:02:42;11.57;;;8.93;;
36551;SDS011;22559;54.176;12.102;2024-01-30T09:05:08;12.83;;;8.53;;
36551;SDS011;22559;54.176;12.102;2024-01-30T09:07:34;10.87;;;8.27;;
36551;SDS011;22559;54.176;12.102;2024-01-30T09:10:00;12.93;;;8.27;;
36551;SDS011;22559;54.176;12.102;2024-01-30T09:12:25;10.17;;;8.07;;
36551;SDS011;22559;54.176;12.102;2024-01-30T09:14:51;15.10;;;9.00;;
36551;SDS011;22559;54.176;12.102;2024-01-30T09:17:16;10.77;;;7.83;;
36551;SDS011;22559;54.176;12.102;2024-01-30T09:19:42;12.07;;;8.57;;
36551;SDS011;22559;54.176;12.102;2024-01-30T09:22:08;11.47;;;8.50;;
36551;SDS011;22559;54.176;12.102;2024-01-30T09:24:33;9.97;;;7.67;;
36551;SDS011;22559;54.176;12.102;2024-01-30T09:26:59;11.97;;;7.77;;
36551;SDS011;22559;54.176;12.102;2024-01-30T09:29:25;12.00;;;8.20;;
36551;SDS011;22559;54.176;12.102;2024-01-30T09:31:51;13.67;;;8.70;;
36551;SDS011;22559;54.176;12.102;2024-01-30T09:34:17;9.67;;;7.30;;
36551;SDS011;22559;54.176;12.102;2024-01-30T09:36:42;10.47;;;7.67;;
36551;SDS011;22559;54.176;12.102;2024-01-30T09:39:08;10.20;;;7.73;;
36551;SDS011;22559;54.176;12.102;2024-01-30T09:41:35;14.37;;;7.97;;
36551;SDS011;22559;54.176;12.102;2024-01-30T09:44:20;13.17;;;8.40;;
36551;SDS011;22559;54.176;12.102;2024-01-30T09:46:48;10.03;;;8.00;;
36551;SDS011;22559;54.176;12.102;2024-01-30T09:49:14;10.47;;;7.77;;
36551;SDS011;22559;54.176;12.102;2024-01-30T09:51:41;10.77;;;8.30;;
36551;SDS011;22559;54.176;12.102;2024-01-30T09:54:07;11.23;;;8.23;;
36551;SDS011;22559;54.176;12.102;2024-01-30T09:56:34;12.67;;;8.27;;
36551;SDS011;22559;54.176;12.102;2024-01-30T09:59:00;14.87;;;9.50;;
36551;SDS011;22559;54.176;12.102;2024-01-30T10:01:26;12.20;;;8.47;;
36551;SDS011;22559;54.176;12.102;2024-01-30T10:03:52;12.13;;;8.97;;
36551;SDS011;22559;54.176;12.102;2024-01-30T10:06:18;13.27;;;8.17;;
36551;SDS011;22559;54.176;12.102;2024-01-30T10:08:45;11.50;;;8.57;;
36551;SDS011;22559;54.176;12.102;2024-01-30T10:11:11;13.27;;;8.73;;
36551;SDS011;22559;54.176;12.102;2024-01-30T10:13:38;15.20;;;9.60;;
36551;SDS011;22559;54.176;12.102;2024-01-30T10:16:04;13.63;;;8.73;;
36551;SDS011;22559;54.176;12.102;2024-01-30T10:18:31;10.50;;;8.57;;
36551;SDS011;22559;54.176;12.102;2024-01-30T10:20:58;13.33;;;9.47;;
36551;SDS011;22559;54.176;12.102;2024-01-30T10:23:24;12.13;;;9.17;;
36551;SDS011;22559;54.176;12.102;2024-01-30T10:25:50;12.73;;;8.47;;
36551;SDS011;22559;54.176;12.102;2024-01-30T10:28:17;12.00;;;7.87;;
36551;SDS011;22559;54.176;12.102;2024-01-30T10:30:42;14.17;;;8.87;;
36551;SDS011;22559;54.176;12.102;2024-01-30T10:33:08;11.53;;;8.17;;
36551;SDS011;22559;54.176;12.102;2024-01-30T10:35:34;11.80;;;9.20;;
36551;SDS011;22559;54.176;12.102;2024-01-30T10:38:00;11.83;;;8.60;;
36551;SDS011;22559;54.176;12.102;2024-01-30T10:40:29;15.10;;;8.90;;
36551;SDS011;22559;54.176;12.102;2024-01-30T10:42:55;14.33;;;9.40;;
36551;SDS011;22559;54.176;12.102;2024-01-30T10:45:21;12.43;;;8.67;;
36551;SDS011;22559;54.176;12.102;2024-01-30T10:47:52;11.43;;;8.40;;
36551;SDS011;22559;54.176;12.102;2024-01-30T10:50:21;11.20;;;8.70;;
36551;SDS011;22559;54.176;12.102;2024-01-30T10:52:49;13.70;;;8.73;;
36551;SDS011;22559;54.176;12.102;2024-01-30T10:55:15;11.53;;;8.67;;
36551;SDS011;22559;54.176;12.102;2024-01-30T10:57:42;10.93;;;8.47;;
36551;SDS011;22559;54.176;12.102;2024-01-30T11:00:09;14.63;;;8.43;;
36551;SDS011;22559;54.176;12.102;2024-01-30T11:02:40;12.10;;;8.90;;
36551;SDS011;22559;54.176;12.102;2024-01-30T11:05:09;12.20;;;8.87;;
36551;SDS011;22559;54.176;12.102;2024-01-30T11:07:35;15.03;;;9.67;;
36551;SDS011;22559;54.176;12.102;2024-01-30T11:10:03;12.37;;;8.87;;
36551;SDS011;22559;54.176;12.102;2024-01-30T11:12:30;14.07;;;9.87;;
36551;SDS011;22559;54.176;12.102;2024-01-30T11:15:06;11.87;;;9.60;;
36551;SDS011;22559;54.176;12.102;2024-01-30T11:17:53;10.97;;;9.23;;
36551;SDS011;22559;54.176;12.102;2024-01-30T11:20:29;13.07;;;8.83;;
36551;SDS011;22559;54.176;12.102;2024-01-30T11:22:56;11.73;;;8.73;;
36551;SDS011;22559;54.176;12.102;2024-01-30T11:25:23;17.00;;;9.70;;
36551;SDS011;22559;54.176;12.102;2024-01-30T11:27:50;13.27;;;9.20;;
36551;SDS011;22559;54.176;12.102;2024-01-30T11:33:02;12.23;;;9.13;;
36551;SDS011;22559;54.176;12.102;2024-01-30T11:35:33;11.43;;;8.13;;
36551;SDS011;22559;54.176;12.102;2024-01-30T11:38:06;11.33;;;8.87;;
36551;SDS011;22559;54.176;12.102;2024-01-30T11:40:37;12.73;;;9.03;;
36551;SDS011;22559;54.176;12.102;2024-01-30T11:43:03;12.67;;;9.20;;
36551;SDS011;22559;54.176;12.102;2024-01-30T11:45:30;14.10;;;9.13;;
36551;SDS011;22559;54.176;12.102;2024-01-30T11:47:57;13.70;;;9.53;;
36551;SDS011;22559;54.176;12.102;2024-01-30T11:50:28;13.50;;;9.20;;
36551;SDS011;22559;54.176;12.102;2024-01-30T11:52:55;12.13;;;9.23;;
36551;SDS011;22559;54.176;12.102;2024-01-30T11:55:20;13.93;;;8.97;;
36551;SDS011;22559;54.176;12.102;2024-01-30T11:57:46;14.67;;;8.87;;
36551;SDS011;22559;54.176;12.102;2024-01-30T12:00:18;12.60;;;9.40;;
36551;SDS011;22559;54.176;12.102;2024-01-30T12:02:44;14.60;;;9.17;;
36551;SDS011;22559;54.176;12.102;2024-01-30T12:05:15;12.27;;;8.87;;
36551;SDS011;22559;54.176;12.102;2024-01-30T12:07:43;13.83;;;9.77;;
36551;SDS011;22559;54.176;12.102;2024-01-30T12:10:11;14.63;;;10.03;;
36551;SDS011;22559;54.176;12.102;2024-01-30T12:12:39;14.80;;;9.67;;
36551;SDS011;22559;54.176;12.102;2024-01-30T12:15:06;13.67;;;10.13;;
36551;SDS011;22559;54.176;12.102;2024-01-30T12:17:33;16.60;;;10.57;;
36551;SDS011;22559;54.176;12.102;2024-01-30T12:20:05;14.07;;;9.37;;
36551;SDS011;22559;54.176;12.102;2024-01-30T12:22:41;13.37;;;10.57;;
36551;SDS011;22559;54.176;12.102;2024-01-30T12:25:08;13.33;;;9.17;;
36551;SDS011;22559;54.176;12.102;2024-01-30T12:27:35;13.30;;;8.90;;
36551;SDS011;22559;54.176;12.102;2024-01-30T12:30:02;11.97;;;8.67;;
36551;SDS011;22559;54.176;12.102;2024-01-30T12:32:31;12.50;;;9.27;;
36551;SDS011;22559;54.176;12.102;2024-01-30T12:34:56;16.97;;;9.57;;
36551;SDS011;22559;54.176;12.102;2024-01-30T12:37:22;14.20;;;9.90;;
36551;SDS011;22559;54.176;12.102;2024-01-30T12:39:49;11.37;;;9.07;;
36551;SDS011;22559;54.176;12.102;2024-01-30T12:42:19;13.30;;;9.23;;
36551;SDS011;22559;54.176;12.102;2024-01-30T12:44:48;12.73;;;9.37;;
36551;SDS011;22559;54.176;12.102;2024-01-30T12:47:14;18.50;;;9.30;;
36551;SDS011;22559;54.176;12.102;2024-01-30T12:49:43;14.23;;;9.47;;
36551;SDS011;22559;54.176;12.102;2024-01-30T12:52:10;16.03;;;9.00;;
36551;SDS011;22559;54.176;12.102;2024-01-30T12:54:36;12.50;;;8.50;;
36551;SDS011;22559;54.176;12.102;2024-01-30T12:57:02;14.80;;;8.93;;
36551;SDS011;22559;54.176;12.102;2024-01-30T12:59:29;13.73;;;9.27;;
36551;SDS011;22559;54.176;12.102;2024-01-30T13:01:54;10.43;;;8.27;;
36551;SDS011;22559;54.176;12.102;2024-01-30T13:04:20;13.80;;;8.80;;
36551;SDS011;22559;54.176;12.102;2024-01-30T13:06:45;14.07;;;9.00;;
36551;SDS011;22559;54.176;12.102;2024-01-30T13:09:11;12.50;;;9.40;;
36551;SDS011;22559;54.176;12.102;2024-01-30T13:11:37;11.63;;;9.20;;
36551;SDS011;22559;54.176;12.102;2024-01-30T13:14:03;17.60;;;9.07;;
36551;SDS011;22559;54.176;12.102;2024-01-30T13:16:28;12.53;;;9.20;;
36551;SDS011;22559;54.176;12.102;2024-01-30T13:18:54;13.93;;;9.03;;
36551;SDS011;22559;54.176;12.102;2024-01-30T13:21:20;14.17;;;9.37;;
36551;SDS011;22559;54.176;12.102;2024-01-30T13:23:46;10.67;;;8.30;;
36551;SDS011;22559;54.176;12.102;2024-01-30T13:26:12;14.63;;;9.17;;
36551;SDS011;22559;54.176;12.102;2024-01-30T13:28:37;13.97;;;9.57;;
36551;SDS011;22559;54.176;12.102;2024-01-30T13:31:03;12.43;;;8.97;;
36551;SDS011;22559;54.176;12.102;2024-01-30T13:33:30;14.17;;;8.97;;
36551;SDS011;22559;54.176;12.102;2024-01-30T13:35:56;14.03;;;9.07;;
36551;SDS011;22559;54.176;12.102;2024-01-30T13:38:21;13.47;;;8.27;;
36551;SDS011;22559;54.176;12.102;2024-01-30T13:40:47;12.70;;;9.03;;
36551;SDS011;22559;54.176;12.102;2024-01-30T13:43:12;12.53;;;9.20;;
36551;SDS011;22559;54.176;12.102;2024-01-30T13:45:38;11.87;;;9.10;;
36551;SDS011;22559;54.176;12.102;2024-01-30T13:48:04;12.53;;;8.87;;
36551;SDS011;22559;54.176;12.102;2024-01-30T13:50:30;12.90;;;8.83;;
36551;SDS011;22559;54.176;12.102;2024-01-30T13:52:55;11.83;;;8.63;;
36551;SDS011;22559;54.176;12.102;2024-01-30T13:55:21;15.27;;;8.67;;
36551;SDS011;22559;54.176;12.102;2024-01-30T13:57:47;14.67;;;8.73;;
36551;SDS011;22559;54.176;12.102;2024-01-30T14:00:12;10.90;;;8.60;;
36551;SDS011;22559;54.176;12.102;2024-01-30T14:02:41;12.67;;;8.90;;
36551;SDS011;22559;54.176;12.102;2024-01-30T14:05:07;12.57;;;8.63;;
36551;SDS011;22559;54.176;12.102;2024-01-30T14:07:35;13.27;;;9.27;;
36551;SDS011;22559;54.176;12.102;2024-01-30T14:10:02;11.13;;;8.80;;
36551;SDS011;22559;54.176;12.102;2024-01-30T14:12:28;14.43;;;9.50;;
36551;SDS011;22559;54.176;12.102;2024-01-30T14:14:55;13.53;;;8.30;;
36551;SDS011;22559;54.176;12.102;2024-01-30T14:17:20;11.83;;;8.60;;
36551;SDS011;22559;54.176;12.102;2024-01-30T14:19:46;11.17;;;8.43;;
36551;SDS011;22559;54.176;12.102;2024-01-30T14:22:12;15.27;;;8.77;;
36551;SDS011;22559;54.176;12.102;2024-01-30T14:24:37;11.93;;;9.07;;
36551;SDS011;22559;54.176;12.102;2024-01-30T14:27:03;16.53;;;9.03;;